sensor_id;sensor_type;location;lat;lon;timestamp;P1;durP1;ratioP1;P2;durP2;ratioP2
6288;SDS011;3177;49.880;8.836;2023-01-19T00:00:40;10.83;;;7.37;;
6288;SDS011;3177;49.880;8.836;2023-01-19T00:03:07;12.57;;;7.70;;
6288;SDS011;3177;49.880;8.836;2023-01-19T00:05:40;8.70;;;6.93;;
6288;SDS011;3177;49.880;8.836;2023-01-19T00:08:07;12.37;;;7.60;;
6288;SDS011;3177;49.880;8.836;2023-01-19T00:10:39;11.90;;;8.53;;
6288;SDS011;3177;49.880;8.836;2023-01-19T00:13:06;9.00;;;7.20;;
6288;SDS011;3177;49.880;8.836;2023-01-19T00:15:33;12.53;;;8.30;;
6288;SDS011;3177;49.880;8.836;2023-01-19T00:18:02;11.03;;;7.63;;
6288;SDS011;3177;49.880;8.836;2023-01-19T00:20:29;13.47;;;8.37;;
6288;SDS011;3177;49.880;8.836;2023-01-19T00:22:59;11.77;;;7.57;;
6288;SDS011;3177;49.880;8.836;2023-01-19T00:25:26;12.63;;;8.37;;
6288;SDS011;3177;49.880;8.836;2023-01-19T00:27:53;10.60;;;8.30;;
6288;SDS011;3177;49.880;8.836;2023-01-19T00:30:20;12.90;;;8.00;;
6288;SDS011;3177;49.880;8.836;2023-01-19T00:32:48;11.73;;;7.27;;
6288;SDS011;3177;49.880;8.836;2023-01-19T00:35:16;11.10;;;7.27;;
6288;SDS011;3177;49.880;8.836;2023-01-19T00:37:43;13.40;;;7.50;;
6288;SDS011;3177;49.880;8.836;2023-01-19T00:40:11;15.13;;;8.33;;
6288;SDS011;3177;49.880;8.836;2023-01-19T00:42:38;12.53;;;8.30;;
6288;SDS011;3177;49.880;8.836;2023-01-19T00:45:09;11.13;;;8.30;;
6288;SDS011;3177;49.880;8.836;2023-01-19T00:47:36;11.07;;;7.57;;
6288;SDS011;3177;49.880;8.836;2023-01-19T00:50:04;11.67;;;7.80;;
6288;SDS011;3177;49.880;8.836;2023-01-19T00:52:33;9.53;;;7.30;;
6288;SDS011;3177;49.880;8.836;2023-01-19T00:55:00;14.30;;;8.37;;
6288;SDS011;3177;49.880;8.836;2023-01-19T00:57:27;9.97;;;7.27;;
6288;SDS011;3177;49.880;8.836;2023-01-19T00:59:54;10.50;;;7.43;;
6288;SDS011;3177;49.880;8.836;2023-01-19T01:02:21;10.47;;;6.20;;
6288;SDS011;3177;49.880;8.836;2023-01-19T01:04:48;11.03;;;6.87;;
6288;SDS011;3177;49.880;8.836;2023-01-19T01:07:19;11.70;;;7.47;;
6288;SDS011;3177;49.880;8.836;2023-01-19T01:09:47;10.40;;;7.87;;
6288;SDS011;3177;49.880;8.836;2023-01-19T01:12:14;11.53;;;8.63;;
6288;SDS011;3177;49.880;8.836;2023-01-19T01:14:41;14.90;;;7.53;;
6288;SDS011;3177;49.880;8.836;2023-01-19T01:17:08;9.97;;;7.10;;
6288;SDS011;3177;49.880;8.836;2023-01-19T01:19:38;12.37;;;7.40;;
6288;SDS011;3177;49.880;8.836;2023-01-19T01:22:05;9.93;;;7.40;;
6288;SDS011;3177;49.880;8.836;2023-01-19T01:24:32;13.03;;;7.47;;
6288;SDS011;3177;49.880;8.836;2023-01-19T01:27:00;8.50;;;7.23;;
6288;SDS011;3177;49.880;8.836;2023-01-19T01:29:27;11.87;;;8.00;;
6288;SDS011;3177;49.880;8.836;2023-01-19T01:31:54;12.20;;;8.33;;
6288;SDS011;3177;49.880;8.836;2023-01-19T01:34:21;9.37;;;8.13;;
6288;SDS011;3177;49.880;8.836;2023-01-19T01:36:48;12.33;;;8.93;;
6288;SDS011;3177;49.880;8.836;2023-01-19T01:39:16;11.27;;;7.63;;
6288;SDS011;3177;49.880;8.836;2023-01-19T01:41:43;15.03;;;8.77;;
6288;SDS011;3177;49.880;8.836;2023-01-19T01:47:02;11.90;;;8.20;;
6288;SDS011;3177;49.880;8.836;2023-01-19T01:49:30;11.57;;;8.20;;
6288;SDS011;3177;49.880;8.836;2023-01-19T01:51:57;13.90;;;9.10;;
6288;SDS011;3177;49.880;8.836;2023-01-19T01:54:24;9.80;;;8.53;;
6288;SDS011;3177;49.880;8.836;2023-01-19T01:56:52;15.20;;;8.77;;
6288;SDS011;3177;49.880;8.836;2023-01-19T01:59:22;10.70;;;7.80;;
6288;SDS011;3177;49.880;8.836;2023-01-19T02:01:50;12.37;;;8.13;;
6288;SDS011;3177;49.880;8.836;2023-01-19T02:04:37;14.57;;;8.83;;
6288;SDS011;3177;49.880;8.836;2023-01-19T02:07:06;10.00;;;8.23;;
6288;SDS011;3177;49.880;8.836;2023-01-19T14:12:09;11.47;;;7.93;;
6288;SDS011;3177;49.880;8.836;2023-01-19T14:14:37;4.60;;;4.23;;
6288;SDS011;3177;49.880;8.836;2023-01-19T14:17:05;15.50;;;10.80;;
6288;SDS011;3177;49.880;8.836;2023-01-19T14:19:49;11.83;;;9.20;;
6288;SDS011;3177;49.880;8.836;2023-01-19T14:22:17;14.80;;;10.90;;
6288;SDS011;3177;49.880;8.836;2023-01-19T14:24:44;13.73;;;10.63;;
6288;SDS011;3177;49.880;8.836;2023-01-19T14:27:19;15.43;;;10.07;;
6288;SDS011;3177;49.880;8.836;2023-01-19T14:29:48;12.70;;;9.50;;
6288;SDS011;3177;49.880;8.836;2023-01-19T14:32:18;8.17;;;7.10;;
6288;SDS011;3177;49.880;8.836;2023-01-19T14:34:46;9.90;;;7.87;;
6288;SDS011;3177;49.880;8.836;2023-01-19T14:37:15;14.23;;;10.23;;
6288;SDS011;3177;49.880;8.836;2023-01-19T14:39:44;15.53;;;10.77;;
6288;SDS011;3177;49.880;8.836;2023-01-19T14:42:13;13.00;;;10.30;;
6288;SDS011;3177;49.880;8.836;2023-01-19T14:44:44;9.17;;;6.77;;
6288;SDS011;3177;49.880;8.836;2023-01-19T14:47:15;16.10;;;10.57;;
6288;SDS011;3177;49.880;8.836;2023-01-19T14:49:47;13.50;;;9.20;;
6288;SDS011;3177;49.880;8.836;2023-01-19T14:52:18;12.43;;;9.87;;
6288;SDS011;3177;49.880;8.836;2023-01-19T14:54:46;13.90;;;9.70;;
6288;SDS011;3177;49.880;8.836;2023-01-19T14:57:14;14.97;;;9.83;;
6288;SDS011;3177;49.880;8.836;2023-01-19T14:59:42;14.37;;;9.77;;
6288;SDS011;3177;49.880;8.836;2023-01-19T15:02:13;13.97;;;9.77;;
6288;SDS011;3177;49.880;8.836;2023-01-19T15:04:42;15.03;;;9.57;;
6288;SDS011;3177;49.880;8.836;2023-01-19T15:07:12;12.77;;;8.87;;
6288;SDS011;3177;49.880;8.836;2023-01-19T15:09:42;17.50;;;12.00;;
6288;SDS011;3177;49.880;8.836;2023-01-19T15:12:09;14.77;;;10.23;;
6288;SDS011;3177;49.880;8.836;2023-01-19T15:14:37;19.27;;;10.37;;
6288;SDS011;3177;49.880;8.836;2023-01-19T15:17:07;15.03;;;10.00;;
6288;SDS011;3177;49.880;8.836;2023-01-19T15:19:36;14.37;;;8.40;;
6288;SDS011;3177;49.880;8.836;2023-01-19T15:22:07;16.13;;;10.70;;
6288;SDS011;3177;49.880;8.836;2023-01-19T15:24:35;11.13;;;8.80;;
6288;SDS011;3177;49.880;8.836;2023-01-19T15:27:03;11.30;;;8.37;;
6288;SDS011;3177;49.880;8.836;2023-01-19T15:29:30;16.30;;;10.20;;
6288;SDS011;3177;49.880;8.836;2023-01-19T15:31:58;13.17;;;9.57;;
6288;SDS011;3177;49.880;8.836;2023-01-19T15:34:27;13.93;;;9.87;;
6288;SDS011;3177;49.880;8.836;2023-01-19T15:36:54;11.73;;;9.13;;
6288;SDS011;3177;49.880;8.836;2023-01-19T15:39:22;10.47;;;8.00;;
6288;SDS011;3177;49.880;8.836;2023-01-19T15:41:50;10.83;;;9.00;;
6288;SDS011;3177;49.880;8.836;2023-01-19T15:44:17;13.53;;;10.47;;
6288;SDS011;3177;49.880;8.836;2023-01-19T15:46:44;16.20;;;9.70;;
6288;SDS011;3177;49.880;8.836;2023-01-19T15:49:11;13.70;;;10.13;;
6288;SDS011;3177;49.880;8.836;2023-01-19T15:51:39;10.07;;;8.40;;
6288;SDS011;3177;49.880;8.836;2023-01-19T15:54:07;13.67;;;10.10;;
6288;SDS011;3177;49.880;8.836;2023-01-19T15:56:35;15.07;;;10.17;;
6288;SDS011;3177;49.880;8.836;2023-01-19T15:59:02;14.53;;;11.30;;
6288;SDS011;3177;49.880;8.836;2023-01-19T16:01:29;13.03;;;9.87;;
6288;SDS011;3177;49.880;8.836;2023-01-19T16:03:57;12.13;;;9.90;;
6288;SDS011;3177;49.880;8.836;2023-01-19T16:06:29;11.50;;;8.40;;
6288;SDS011;3177;49.880;8.836;2023-01-19T16:08:57;12.70;;;9.30;;
6288;SDS011;3177;49.880;8.836;2023-01-19T16:11:25;15.37;;;11.47;;
6288;SDS011;3177;49.880;8.836;2023-01-19T16:13:53;13.40;;;10.03;;
6288;SDS011;3177;49.880;8.836;2023-01-19T16:16:21;17.70;;;11.67;;
6288;SDS011;3177;49.880;8.836;2023-01-19T16:18:48;13.37;;;10.63;;
6288;SDS011;3177;49.880;8.836;2023-01-19T16:21:16;15.33;;;11.57;;
6288;SDS011;3177;49.880;8.836;2023-01-19T16:23:43;17.53;;;11.43;;
6288;SDS011;3177;49.880;8.836;2023-01-19T16:28:58;17.87;;;11.30;;
6288;SDS011;3177;49.880;8.836;2023-01-19T16:31:25;17.27;;;11.53;;
6288;SDS011;3177;49.880;8.836;2023-01-19T16:33:52;17.30;;;11.23;;
6288;SDS011;3177;49.880;8.836;2023-01-19T16:36:20;19.63;;;12.83;;
6288;SDS011;3177;49.880;8.836;2023-01-19T16:38:49;22.03;;;13.00;;
6288;SDS011;3177;49.880;8.836;2023-01-19T16:41:19;16.57;;;11.70;;
6288;SDS011;3177;49.880;8.836;2023-01-19T16:43:50;20.57;;;13.37;;
6288;SDS011;3177;49.880;8.836;2023-01-19T16:46:25;21.00;;;12.37;;
6288;SDS011;3177;49.880;8.836;2023-01-19T16:48:52;21.77;;;13.90;;
6288;SDS011;3177;49.880;8.836;2023-01-19T16:51:23;22.77;;;14.40;;
6288;SDS011;3177;49.880;8.836;2023-01-19T16:53:51;20.50;;;13.77;;
6288;SDS011;3177;49.880;8.836;2023-01-19T16:56:19;59.37;;;29.23;;
6288;SDS011;3177;49.880;8.836;2023-01-19T16:58:51;48.60;;;26.53;;
6288;SDS011;3177;49.880;8.836;2023-01-19T17:01:20;22.97;;;14.83;;
6288;SDS011;3177;49.880;8.836;2023-01-19T17:03:57;19.63;;;13.73;;
6288;SDS011;3177;49.880;8.836;2023-01-19T17:06:24;25.07;;;15.97;;
6288;SDS011;3177;49.880;8.836;2023-01-19T17:08:52;22.30;;;14.73;;
6288;SDS011;3177;49.880;8.836;2023-01-19T17:11:20;25.20;;;14.97;;
6288;SDS011;3177;49.880;8.836;2023-01-19T17:13:48;21.77;;;16.33;;
6288;SDS011;3177;49.880;8.836;2023-01-19T17:16:15;22.37;;;13.50;;
6288;SDS011;3177;49.880;8.836;2023-01-19T17:18:42;22.00;;;14.67;;
6288;SDS011;3177;49.880;8.836;2023-01-19T17:21:13;20.43;;;14.20;;
6288;SDS011;3177;49.880;8.836;2023-01-19T17:23:42;17.57;;;12.53;;
6288;SDS011;3177;49.880;8.836;2023-01-19T17:26:09;19.87;;;13.93;;
6288;SDS011;3177;49.880;8.836;2023-01-19T17:28:36;12.13;;;9.50;;
6288;SDS011;3177;49.880;8.836;2023-01-19T17:31:04;17.97;;;12.10;;
6288;SDS011;3177;49.880;8.836;2023-01-19T17:33:31;19.63;;;13.07;;
6288;SDS011;3177;49.880;8.836;2023-01-19T17:36:01;10.93;;;8.70;;
6288;SDS011;3177;49.880;8.836;2023-01-19T17:38:29;14.20;;;10.77;;
6288;SDS011;3177;49.880;8.836;2023-01-19T17:40:56;19.87;;;12.17;;
6288;SDS011;3177;49.880;8.836;2023-01-19T17:43:23;12.93;;;9.57;;
6288;SDS011;3177;49.880;8.836;2023-01-19T17:45:51;20.73;;;14.57;;
6288;SDS011;3177;49.880;8.836;2023-01-19T17:48:18;19.10;;;12.80;;
6288;SDS011;3177;49.880;8.836;2023-01-19T17:50:45;18.63;;;13.23;;
6288;SDS011;3177;49.880;8.836;2023-01-19T17:53:13;13.63;;;8.40;;
6288;SDS011;3177;49.880;8.836;2023-01-19T17:55:41;14.77;;;10.70;;
6288;SDS011;3177;49.880;8.836;2023-01-19T17:58:08;16.73;;;12.63;;
6288;SDS011;3177;49.880;8.836;2023-01-19T18:00:35;23.00;;;14.17;;
6288;SDS011;3177;49.880;8.836;2023-01-19T18:03:03;20.77;;;13.07;;
6288;SDS011;3177;49.880;8.836;2023-01-19T18:05:30;18.30;;;12.30;;
6288;SDS011;3177;49.880;8.836;2023-01-19T18:08:04;27.87;;;18.93;;
6288;SDS011;3177;49.880;8.836;2023-01-19T18:10:33;17.10;;;12.33;;
6288;SDS011;3177;49.880;8.836;2023-01-19T18:13:03;19.00;;;12.27;;
6288;SDS011;3177;49.880;8.836;2023-01-19T18:15:46;16.90;;;13.43;;
6288;SDS011;3177;49.880;8.836;2023-01-19T18:18:13;17.57;;;12.53;;
6288;SDS011;3177;49.880;8.836;2023-01-19T18:20:40;20.37;;;13.73;;
6288;SDS011;3177;49.880;8.836;2023-01-19T18:23:08;19.53;;;12.97;;
6288;SDS011;3177;49.880;8.836;2023-01-19T18:25:35;16.87;;;12.30;;
6288;SDS011;3177;49.880;8.836;2023-01-19T18:28:05;17.40;;;12.17;;
6288;SDS011;3177;49.880;8.836;2023-01-19T18:30:38;17.30;;;13.57;;
6288;SDS011;3177;49.880;8.836;2023-01-19T18:33:05;23.83;;;14.17;;
6288;SDS011;3177;49.880;8.836;2023-01-19T18:35:33;16.40;;;12.77;;
6288;SDS011;3177;49.880;8.836;2023-01-19T18:38:00;23.83;;;16.50;;
6288;SDS011;3177;49.880;8.836;2023-01-19T18:40:27;19.83;;;14.33;;
6288;SDS011;3177;49.880;8.836;2023-01-19T18:42:54;20.77;;;15.27;;
6288;SDS011;3177;49.880;8.836;2023-01-19T18:45:22;20.17;;;13.97;;
6288;SDS011;3177;49.880;8.836;2023-01-19T18:47:49;24.50;;;16.63;;
6288;SDS011;3177;49.880;8.836;2023-01-19T18:50:17;21.03;;;14.00;;
6288;SDS011;3177;49.880;8.836;2023-01-19T18:52:45;27.63;;;17.03;;
6288;SDS011;3177;49.880;8.836;2023-01-19T18:55:13;26.80;;;17.23;;
6288;SDS011;3177;49.880;8.836;2023-01-19T18:57:40;22.27;;;14.90;;
6288;SDS011;3177;49.880;8.836;2023-01-19T19:00:07;22.97;;;15.20;;
6288;SDS011;3177;49.880;8.836;2023-01-19T19:02:36;22.67;;;14.57;;
6288;SDS011;3177;49.880;8.836;2023-01-19T19:05:03;19.60;;;11.57;;
6288;SDS011;3177;49.880;8.836;2023-01-19T19:07:30;19.97;;;13.57;;
6288;SDS011;3177;49.880;8.836;2023-01-19T19:09:58;20.27;;;13.13;;
6288;SDS011;3177;49.880;8.836;2023-01-19T19:12:25;23.10;;;13.57;;
6288;SDS011;3177;49.880;8.836;2023-01-19T19:14:52;20.97;;;14.33;;
6288;SDS011;3177;49.880;8.836;2023-01-19T19:17:19;25.33;;;16.77;;
6288;SDS011;3177;49.880;8.836;2023-01-19T19:22:19;15.60;;;12.03;;
6288;SDS011;3177;49.880;8.836;2023-01-19T19:24:46;19.97;;;13.53;;
6288;SDS011;3177;49.880;8.836;2023-01-19T19:27:18;22.03;;;16.63;;
6288;SDS011;3177;49.880;8.836;2023-01-19T19:29:45;21.23;;;13.77;;
6288;SDS011;3177;49.880;8.836;2023-01-19T19:32:15;25.27;;;15.43;;
6288;SDS011;3177;49.880;8.836;2023-01-19T19:34:46;23.83;;;14.87;;
6288;SDS011;3177;49.880;8.836;2023-01-19T19:37:14;20.40;;;13.37;;
6288;SDS011;3177;49.880;8.836;2023-01-19T19:39:42;20.20;;;13.50;;
6288;SDS011;3177;49.880;8.836;2023-01-19T19:42:09;21.93;;;14.60;;
6288;SDS011;3177;49.880;8.836;2023-01-19T19:44:36;19.57;;;15.20;;
6288;SDS011;3177;49.880;8.836;2023-01-19T19:47:03;25.17;;;15.27;;
6288;SDS011;3177;49.880;8.836;2023-01-19T19:49:31;20.93;;;14.70;;
6288;SDS011;3177;49.880;8.836;2023-01-19T19:51:58;22.47;;;14.37;;
6288;SDS011;3177;49.880;8.836;2023-01-19T19:54:25;22.50;;;16.10;;
6288;SDS011;3177;49.880;8.836;2023-01-19T19:56:54;28.10;;;20.17;;
6288;SDS011;3177;49.880;8.836;2023-01-19T19:59:21;24.53;;;15.20;;
6288;SDS011;3177;49.880;8.836;2023-01-19T20:01:48;22.53;;;14.53;;
6288;SDS011;3177;49.880;8.836;2023-01-19T20:04:17;20.00;;;12.77;;
6288;SDS011;3177;49.880;8.836;2023-01-19T20:06:47;16.97;;;13.10;;
6288;SDS011;3177;49.880;8.836;2023-01-19T20:09:14;15.93;;;11.30;;
6288;SDS011;3177;49.880;8.836;2023-01-19T20:11:42;20.63;;;12.90;;
6288;SDS011;3177;49.880;8.836;2023-01-19T20:14:12;19.03;;;13.27;;
6288;SDS011;3177;49.880;8.836;2023-01-19T20:16:40;15.30;;;11.53;;
6288;SDS011;3177;49.880;8.836;2023-01-19T20:19:07;16.20;;;11.57;;
6288;SDS011;3177;49.880;8.836;2023-01-19T20:21:35;20.90;;;13.97;;
6288;SDS011;3177;49.880;8.836;2023-01-19T20:24:03;21.70;;;14.33;;
6288;SDS011;3177;49.880;8.836;2023-01-19T20:26:32;17.40;;;12.27;;
6288;SDS011;3177;49.880;8.836;2023-01-19T20:29:00;16.70;;;11.37;;
6288;SDS011;3177;49.880;8.836;2023-01-19T20:31:32;19.40;;;11.27;;
6288;SDS011;3177;49.880;8.836;2023-01-19T20:34:00;24.30;;;13.70;;
6288;SDS011;3177;49.880;8.836;2023-01-19T20:36:28;18.10;;;13.47;;
6288;SDS011;3177;49.880;8.836;2023-01-19T20:38:56;17.17;;;11.43;;
6288;SDS011;3177;49.880;8.836;2023-01-19T20:41:23;19.20;;;12.37;;
6288;SDS011;3177;49.880;8.836;2023-01-19T20:43:51;18.00;;;11.57;;
6288;SDS011;3177;49.880;8.836;2023-01-19T20:46:18;16.63;;;10.70;;
6288;SDS011;3177;49.880;8.836;2023-01-19T20:48:46;18.27;;;12.07;;
6288;SDS011;3177;49.880;8.836;2023-01-19T20:51:16;14.47;;;10.90;;
6288;SDS011;3177;49.880;8.836;2023-01-19T20:53:44;15.60;;;11.17;;
6288;SDS011;3177;49.880;8.836;2023-01-19T20:56:12;15.00;;;10.70;;
6288;SDS011;3177;49.880;8.836;2023-01-19T20:58:39;15.97;;;11.13;;
6288;SDS011;3177;49.880;8.836;2023-01-19T21:01:10;17.43;;;11.00;;
6288;SDS011;3177;49.880;8.836;2023-01-19T21:03:38;17.23;;;12.03;;
6288;SDS011;3177;49.880;8.836;2023-01-19T21:06:07;14.93;;;12.00;;
6288;SDS011;3177;49.880;8.836;2023-01-19T21:08:34;14.43;;;11.13;;
6288;SDS011;3177;49.880;8.836;2023-01-19T21:11:01;16.53;;;13.13;;
6288;SDS011;3177;49.880;8.836;2023-01-19T21:13:29;16.10;;;11.57;;
6288;SDS011;3177;49.880;8.836;2023-01-19T21:15:56;17.37;;;11.17;;
6288;SDS011;3177;49.880;8.836;2023-01-19T21:18:23;17.20;;;10.70;;
6288;SDS011;3177;49.880;8.836;2023-01-19T21:20:51;18.77;;;11.53;;
6288;SDS011;3177;49.880;8.836;2023-01-19T21:23:20;19.90;;;12.47;;
6288;SDS011;3177;49.880;8.836;2023-01-19T21:25:47;15.20;;;11.70;;
6288;SDS011;3177;49.880;8.836;2023-01-19T21:28:15;24.10;;;13.60;;
6288;SDS011;3177;49.880;8.836;2023-01-19T21:30:42;23.37;;;14.87;;
6288;SDS011;3177;49.880;8.836;2023-01-19T21:33:09;22.13;;;13.40;;
6288;SDS011;3177;49.880;8.836;2023-01-19T21:35:36;14.17;;;11.37;;
6288;SDS011;3177;49.880;8.836;2023-01-19T21:38:05;24.73;;;14.30;;
6288;SDS011;3177;49.880;8.836;2023-01-19T21:40:35;17.13;;;12.57;;
6288;SDS011;3177;49.880;8.836;2023-01-19T21:43:02;17.97;;;12.60;;
6288;SDS011;3177;49.880;8.836;2023-01-19T21:45:29;17.80;;;11.30;;
6288;SDS011;3177;49.880;8.836;2023-01-19T21:47:56;17.30;;;11.37;;
6288;SDS011;3177;49.880;8.836;2023-01-19T21:50:23;16.90;;;11.43;;
6288;SDS011;3177;49.880;8.836;2023-01-19T21:52:50;16.57;;;11.77;;
6288;SDS011;3177;49.880;8.836;2023-01-19T21:55:17;23.13;;;12.53;;
6288;SDS011;3177;49.880;8.836;2023-01-19T21:57:51;17.80;;;12.80;;
6288;SDS011;3177;49.880;8.836;2023-01-19T22:00:19;16.97;;;12.23;;
6288;SDS011;3177;49.880;8.836;2023-01-19T22:02:46;23.20;;;12.27;;
6288;SDS011;3177;49.880;8.836;2023-01-19T22:05:13;15.60;;;12.27;;
6288;SDS011;3177;49.880;8.836;2023-01-19T22:07:40;17.10;;;12.03;;
6288;SDS011;3177;49.880;8.836;2023-01-19T22:10:08;16.27;;;11.60;;
6288;SDS011;3177;49.880;8.836;2023-01-19T22:12:36;15.60;;;11.20;;
6288;SDS011;3177;49.880;8.836;2023-01-19T22:15:06;18.53;;;11.97;;
6288;SDS011;3177;49.880;8.836;2023-01-19T22:17:33;15.97;;;11.87;;
6288;SDS011;3177;49.880;8.836;2023-01-19T22:20:01;17.60;;;13.43;;
6288;SDS011;3177;49.880;8.836;2023-01-19T22:22:30;18.57;;;12.53;;
6288;SDS011;3177;49.880;8.836;2023-01-19T22:24:57;16.90;;;12.87;;
6288;SDS011;3177;49.880;8.836;2023-01-19T22:27:24;16.57;;;12.70;;
6288;SDS011;3177;49.880;8.836;2023-01-19T22:29:52;16.50;;;11.53;;
6288;SDS011;3177;49.880;8.836;2023-01-19T22:32:21;15.97;;;11.37;;
6288;SDS011;3177;49.880;8.836;2023-01-19T22:34:48;18.23;;;11.70;;
6288;SDS011;3177;49.880;8.836;2023-01-19T22:37:15;17.17;;;12.10;;
6288;SDS011;3177;49.880;8.836;2023-01-19T22:39:42;17.73;;;12.80;;
6288;SDS011;3177;49.880;8.836;2023-01-19T22:42:09;18.90;;;12.23;;
6288;SDS011;3177;49.880;8.836;2023-01-19T22:44:36;17.03;;;12.67;;
6288;SDS011;3177;49.880;8.836;2023-01-19T22:47:03;24.10;;;13.23;;
6288;SDS011;3177;49.880;8.836;2023-01-19T22:49:31;18.13;;;12.57;;
6288;SDS011;3177;49.880;8.836;2023-01-19T22:51:58;18.90;;;13.47;;
6288;SDS011;3177;49.880;8.836;2023-01-19T22:54:25;19.23;;;12.87;;
6288;SDS011;3177;49.880;8.836;2023-01-19T22:56:53;23.43;;;13.87;;
6288;SDS011;3177;49.880;8.836;2023-01-19T22:59:20;23.07;;;13.77;;
6288;SDS011;3177;49.880;8.836;2023-01-19T23:01:48;20.07;;;13.97;;
6288;SDS011;3177;49.880;8.836;2023-01-19T23:04:15;19.43;;;12.83;;
6288;SDS011;3177;49.880;8.836;2023-01-19T23:06:43;20.20;;;13.83;;
6288;SDS011;3177;49.880;8.836;2023-01-19T23:09:14;18.43;;;12.43;;
6288;SDS011;3177;49.880;8.836;2023-01-19T23:11:41;21.83;;;12.60;;
6288;SDS011;3177;49.880;8.836;2023-01-19T23:14:11;18.53;;;12.47;;
6288;SDS011;3177;49.880;8.836;2023-01-19T23:16:39;22.80;;;14.80;;
6288;SDS011;3177;49.880;8.836;2023-01-19T23:19:06;22.30;;;14.80;;
6288;SDS011;3177;49.880;8.836;2023-01-19T23:21:33;21.00;;;13.63;;
6288;SDS011;3177;49.880;8.836;2023-01-19T23:24:02;21.30;;;14.60;;
6288;SDS011;3177;49.880;8.836;2023-01-19T23:26:30;26.00;;;15.07;;
6288;SDS011;3177;49.880;8.836;2023-01-19T23:29:02;24.07;;;15.37;;
6288;SDS011;3177;49.880;8.836;2023-01-19T23:31:30;19.47;;;14.20;;
6288;SDS011;3177;49.880;8.836;2023-01-19T23:33:57;23.67;;;15.80;;
6288;SDS011;3177;49.880;8.836;2023-01-19T23:36:26;22.23;;;15.27;;
6288;SDS011;3177;49.880;8.836;2023-01-19T23:38:53;22.77;;;15.47;;
6288;SDS011;3177;49.880;8.836;2023-01-19T23:41:22;23.03;;;14.87;;
6288;SDS011;3177;49.880;8.836;2023-01-19T23:43:50;23.80;;;14.60;;
6288;SDS011;3177;49.880;8.836;2023-01-19T23:46:17;20.77;;;14.07;;
6288;SDS011;3177;49.880;8.836;2023-01-19T23:48:45;22.07;;;14.77;;
6288;SDS011;3177;49.880;8.836;2023-01-19T23:51:12;21.43;;;15.43;;
6288;SDS011;3177;49.880;8.836;2023-01-19T23:53:40;21.70;;;13.97;;
6288;SDS011;3177;49.880;8.836;2023-01-19T23:56:08;18.53;;;14.27;;
6288;SDS011;3177;49.880;8.836;2023-01-19T23:58:36;19.93;;;13.83;;
